sensor_id;sensor_type;location;lat;lon;timestamp;P1;durP1;ratioP1;P2;durP2;ratioP2
67979;SDS011;54760;47.490;19.030;2022-08-16T00:01:45;9.38;;;5.25;;
67979;SDS011;54760;47.490;19.030;2022-08-16T00:04:11;7.47;;;4.95;;
67979;SDS011;54760;47.490;19.030;2022-08-16T00:06:36;9.32;;;4.95;;
67979;SDS011;54760;47.490;19.030;2022-08-16T00:09:02;10.65;;;5.20;;
67979;SDS011;54760;47.490;19.030;2022-08-16T00:11:28;9.38;;;5.30;;
67979;SDS011;54760;47.490;19.030;2022-08-16T00:13:54;6.70;;;4.93;;
67979;SDS011;54760;47.490;19.030;2022-08-16T00:16:19;7.50;;;5.43;;
67979;SDS011;54760;47.490;19.030;2022-08-16T00:18:45;7.70;;;5.07;;
67979;SDS011;54760;47.490;19.030;2022-08-16T00:21:11;5.97;;;5.05;;
67979;SDS011;54760;47.490;19.030;2022-08-16T00:23:36;7.82;;;5.20;;
67979;SDS011;54760;47.490;19.030;2022-08-16T00:26:02;8.77;;;5.70;;
67979;SDS011;54760;47.490;19.030;2022-08-16T00:28:28;10.85;;;5.53;;
67979;SDS011;54760;47.490;19.030;2022-08-16T00:30:53;7.60;;;5.10;;
67979;SDS011;54760;47.490;19.030;2022-08-16T00:33:19;9.48;;;4.82;;
67979;SDS011;54760;47.490;19.030;2022-08-16T00:35:44;8.85;;;5.10;;
67979;SDS011;54760;47.490;19.030;2022-08-16T00:38:10;8.82;;;5.12;;
67979;SDS011;54760;47.490;19.030;2022-08-16T00:43:08;9.68;;;5.20;;
67979;SDS011;54760;47.490;19.030;2022-08-16T00:45:40;9.57;;;5.60;;
67979;SDS011;54760;47.490;19.030;2022-08-16T00:48:12;8.70;;;4.80;;
67979;SDS011;54760;47.490;19.030;2022-08-16T00:50:39;7.65;;;5.05;;
67979;SDS011;54760;47.490;19.030;2022-08-16T00:53:08;8.98;;;4.78;;
67979;SDS011;54760;47.490;19.030;2022-08-16T00:55:35;10.35;;;5.12;;
67979;SDS011;54760;47.490;19.030;2022-08-16T00:58:03;10.02;;;4.97;;
67979;SDS011;54760;47.490;19.030;2022-08-16T01:00:30;6.57;;;5.20;;
67979;SDS011;54760;47.490;19.030;2022-08-16T01:03:00;8.43;;;5.07;;
67979;SDS011;54760;47.490;19.030;2022-08-16T01:07:58;7.22;;;4.47;;
67979;SDS011;54760;47.490;19.030;2022-08-16T01:10:25;9.93;;;4.80;;
67979;SDS011;54760;47.490;19.030;2022-08-16T01:12:52;8.95;;;4.95;;
67979;SDS011;54760;47.490;19.030;2022-08-16T01:15:18;7.43;;;5.03;;
67979;SDS011;54760;47.490;19.030;2022-08-16T01:17:44;8.25;;;4.93;;
67979;SDS011;54760;47.490;19.030;2022-08-16T01:20:12;6.12;;;4.55;;
67979;SDS011;54760;47.490;19.030;2022-08-16T01:22:57;11.50;;;4.95;;
67979;SDS011;54760;47.490;19.030;2022-08-16T01:25:36;6.97;;;4.85;;
67979;SDS011;54760;47.490;19.030;2022-08-16T01:28:07;7.43;;;4.95;;
67979;SDS011;54760;47.490;19.030;2022-08-16T01:30:38;6.70;;;4.70;;
67979;SDS011;54760;47.490;19.030;2022-08-16T01:33:06;6.30;;;4.93;;
67979;SDS011;54760;47.490;19.030;2022-08-16T01:35:37;5.40;;;4.82;;
67979;SDS011;54760;47.490;19.030;2022-08-16T01:38:23;5.75;;;4.80;;
67979;SDS011;54760;47.490;19.030;2022-08-16T01:40:49;5.35;;;4.37;;
67979;SDS011;54760;47.490;19.030;2022-08-16T01:43:16;5.70;;;4.40;;
67979;SDS011;54760;47.490;19.030;2022-08-16T01:45:42;7.00;;;5.30;;
67979;SDS011;54760;47.490;19.030;2022-08-16T01:48:08;6.22;;;5.18;;
67979;SDS011;54760;47.490;19.030;2022-08-16T01:50:34;7.93;;;4.68;;
67979;SDS011;54760;47.490;19.030;2022-08-16T01:53:00;8.57;;;5.10;;
67979;SDS011;54760;47.490;19.030;2022-08-16T01:55:26;6.70;;;5.00;;
67979;SDS011;54760;47.490;19.030;2022-08-16T01:57:52;9.82;;;5.10;;
67979;SDS011;54760;47.490;19.030;2022-08-16T02:00:17;7.47;;;4.62;;
67979;SDS011;54760;47.490;19.030;2022-08-16T02:02:43;7.10;;;4.40;;
67979;SDS011;54760;47.490;19.030;2022-08-16T02:05:09;7.10;;;4.85;;
67979;SDS011;54760;47.490;19.030;2022-08-16T02:07:36;8.65;;;5.30;;
67979;SDS011;54760;47.490;19.030;2022-08-16T02:10:03;9.02;;;4.95;;
67979;SDS011;54760;47.490;19.030;2022-08-16T02:12:31;7.90;;;4.80;;
67979;SDS011;54760;47.490;19.030;2022-08-16T02:14:58;8.85;;;5.15;;
67979;SDS011;54760;47.490;19.030;2022-08-16T02:17:23;8.15;;;5.00;;
67979;SDS011;54760;47.490;19.030;2022-08-16T02:19:49;8.95;;;5.07;;
67979;SDS011;54760;47.490;19.030;2022-08-16T02:22:17;7.07;;;5.07;;
67979;SDS011;54760;47.490;19.030;2022-08-16T02:24:44;6.32;;;5.20;;
67979;SDS011;54760;47.490;19.030;2022-08-16T02:27:09;7.40;;;4.65;;
67979;SDS011;54760;47.490;19.030;2022-08-16T02:29:35;10.52;;;4.82;;
67979;SDS011;54760;47.490;19.030;2022-08-16T02:32:01;6.93;;;5.03;;
67979;SDS011;54760;47.490;19.030;2022-08-16T02:34:28;8.80;;;5.05;;
67979;SDS011;54760;47.490;19.030;2022-08-16T02:36:54;8.25;;;5.40;;
67979;SDS011;54760;47.490;19.030;2022-08-16T02:39:19;5.65;;;4.95;;
67979;SDS011;54760;47.490;19.030;2022-08-16T02:41:45;6.47;;;4.90;;
67979;SDS011;54760;47.490;19.030;2022-08-16T02:44:12;10.05;;;4.93;;
67979;SDS011;54760;47.490;19.030;2022-08-16T02:46:38;5.93;;;4.93;;
67979;SDS011;54760;47.490;19.030;2022-08-16T02:49:05;10.35;;;5.20;;
67979;SDS011;54760;47.490;19.030;2022-08-16T02:51:31;11.15;;;5.32;;
67979;SDS011;54760;47.490;19.030;2022-08-16T02:53:57;8.57;;;5.10;;
67979;SDS011;54760;47.490;19.030;2022-08-16T02:56:23;5.75;;;4.82;;
67979;SDS011;54760;47.490;19.030;2022-08-16T02:58:49;6.87;;;5.65;;
67979;SDS011;54760;47.490;19.030;2022-08-16T03:01:21;7.35;;;4.93;;
67979;SDS011;54760;47.490;19.030;2022-08-16T03:03:49;11.23;;;5.90;;
67979;SDS011;54760;47.490;19.030;2022-08-16T03:06:16;7.72;;;4.90;;
67979;SDS011;54760;47.490;19.030;2022-08-16T03:08:44;9.77;;;5.40;;
67979;SDS011;54760;47.490;19.030;2022-08-16T03:11:10;7.25;;;4.90;;
67979;SDS011;54760;47.490;19.030;2022-08-16T03:13:37;6.87;;;5.00;;
67979;SDS011;54760;47.490;19.030;2022-08-16T03:16:02;7.12;;;5.28;;
67979;SDS011;54760;47.490;19.030;2022-08-16T03:18:28;6.90;;;5.05;;
67979;SDS011;54760;47.490;19.030;2022-08-16T03:20:53;5.50;;;4.80;;
67979;SDS011;54760;47.490;19.030;2022-08-16T03:23:20;10.27;;;5.82;;
67979;SDS011;54760;47.490;19.030;2022-08-16T03:25:46;8.73;;;5.50;;
67979;SDS011;54760;47.490;19.030;2022-08-16T03:28:11;8.55;;;5.35;;
67979;SDS011;54760;47.490;19.030;2022-08-16T03:30:37;8.93;;;5.32;;
67979;SDS011;54760;47.490;19.030;2022-08-16T03:33:03;8.85;;;5.43;;
67979;SDS011;54760;47.490;19.030;2022-08-16T03:35:29;11.07;;;5.43;;
67979;SDS011;54760;47.490;19.030;2022-08-16T03:37:57;5.87;;;5.10;;
67979;SDS011;54760;47.490;19.030;2022-08-16T03:40:24;7.53;;;5.30;;
67979;SDS011;54760;47.490;19.030;2022-08-16T03:42:50;6.15;;;5.40;;
67979;SDS011;54760;47.490;19.030;2022-08-16T03:45:16;9.65;;;5.55;;
67979;SDS011;54760;47.490;19.030;2022-08-16T03:47:42;7.03;;;5.43;;
67979;SDS011;54760;47.490;19.030;2022-08-16T03:50:10;9.95;;;5.40;;
67979;SDS011;54760;47.490;19.030;2022-08-16T03:52:35;7.32;;;5.37;;
67979;SDS011;54760;47.490;19.030;2022-08-16T03:55:02;10.00;;;5.25;;
67979;SDS011;54760;47.490;19.030;2022-08-16T03:57:29;7.75;;;6.00;;
67979;SDS011;54760;47.490;19.030;2022-08-16T03:59:55;10.13;;;5.50;;
67979;SDS011;54760;47.490;19.030;2022-08-16T04:02:21;7.78;;;5.30;;
67979;SDS011;54760;47.490;19.030;2022-08-16T04:04:46;8.93;;;5.50;;
67979;SDS011;54760;47.490;19.030;2022-08-16T04:07:13;7.35;;;5.30;;
67979;SDS011;54760;47.490;19.030;2022-08-16T04:09:39;6.25;;;5.60;;
67979;SDS011;54760;47.490;19.030;2022-08-16T04:12:05;6.78;;;5.10;;
67979;SDS011;54760;47.490;19.030;2022-08-16T04:14:31;9.75;;;5.45;;
67979;SDS011;54760;47.490;19.030;2022-08-16T04:16:56;6.80;;;4.97;;
67979;SDS011;54760;47.490;19.030;2022-08-16T04:19:22;10.60;;;5.07;;
67979;SDS011;54760;47.490;19.030;2022-08-16T04:21:49;10.88;;;5.90;;
67979;SDS011;54760;47.490;19.030;2022-08-16T04:24:15;11.48;;;5.53;;
67979;SDS011;54760;47.490;19.030;2022-08-16T04:26:40;8.90;;;5.15;;
67979;SDS011;54760;47.490;19.030;2022-08-16T04:29:06;11.45;;;5.35;;
67979;SDS011;54760;47.490;19.030;2022-08-16T04:31:31;9.93;;;6.03;;
67979;SDS011;54760;47.490;19.030;2022-08-16T04:33:57;8.02;;;5.20;;
67979;SDS011;54760;47.490;19.030;2022-08-16T04:36:23;10.77;;;5.72;;
67979;SDS011;54760;47.490;19.030;2022-08-16T04:38:52;9.80;;;5.53;;
67979;SDS011;54760;47.490;19.030;2022-08-16T04:41:19;8.38;;;5.62;;
67979;SDS011;54760;47.490;19.030;2022-08-16T04:43:45;7.60;;;5.53;;
67979;SDS011;54760;47.490;19.030;2022-08-16T04:46:10;7.93;;;6.07;;
67979;SDS011;54760;47.490;19.030;2022-08-16T04:48:39;8.10;;;6.10;;
67979;SDS011;54760;47.490;19.030;2022-08-16T04:51:05;9.57;;;6.22;;
67979;SDS011;54760;47.490;19.030;2022-08-16T04:53:31;10.85;;;6.68;;
67979;SDS011;54760;47.490;19.030;2022-08-16T04:55:57;10.60;;;6.80;;
67979;SDS011;54760;47.490;19.030;2022-08-16T04:58:24;9.20;;;5.90;;
67979;SDS011;54760;47.490;19.030;2022-08-16T05:00:49;9.48;;;5.82;;
67979;SDS011;54760;47.490;19.030;2022-08-16T05:03:15;7.53;;;5.35;;
67979;SDS011;54760;47.490;19.030;2022-08-16T05:05:41;9.13;;;5.82;;
67979;SDS011;54760;47.490;19.030;2022-08-16T05:08:06;8.68;;;5.70;;
67979;SDS011;54760;47.490;19.030;2022-08-16T05:10:33;10.93;;;6.18;;
67979;SDS011;54760;47.490;19.030;2022-08-16T05:12:58;14.87;;;6.82;;
67979;SDS011;54760;47.490;19.030;2022-08-16T05:15:25;22.37;;;8.65;;
67979;SDS011;54760;47.490;19.030;2022-08-16T05:17:51;21.37;;;9.13;;
67979;SDS011;54760;47.490;19.030;2022-08-16T05:20:17;18.50;;;8.15;;
67979;SDS011;54760;47.490;19.030;2022-08-16T05:22:42;13.50;;;7.55;;
67979;SDS011;54760;47.490;19.030;2022-08-16T05:25:08;16.52;;;7.90;;
67979;SDS011;54760;47.490;19.030;2022-08-16T05:27:35;12.50;;;7.20;;
67979;SDS011;54760;47.490;19.030;2022-08-16T05:30:01;13.73;;;7.50;;
67979;SDS011;54760;47.490;19.030;2022-08-16T05:32:27;15.85;;;7.20;;
67979;SDS011;54760;47.490;19.030;2022-08-16T05:34:53;12.07;;;7.47;;
67979;SDS011;54760;47.490;19.030;2022-08-16T05:37:19;14.82;;;6.82;;
67979;SDS011;54760;47.490;19.030;2022-08-16T05:39:47;12.63;;;7.70;;
67979;SDS011;54760;47.490;19.030;2022-08-16T05:42:13;12.75;;;7.37;;
67979;SDS011;54760;47.490;19.030;2022-08-16T05:44:38;13.57;;;8.10;;
67979;SDS011;54760;47.490;19.030;2022-08-16T05:47:03;14.80;;;8.30;;
67979;SDS011;54760;47.490;19.030;2022-08-16T05:49:30;12.82;;;7.78;;
67979;SDS011;54760;47.490;19.030;2022-08-16T05:51:56;15.57;;;8.90;;
67979;SDS011;54760;47.490;19.030;2022-08-16T05:54:23;16.48;;;8.13;;
67979;SDS011;54760;47.490;19.030;2022-08-16T05:56:49;15.15;;;8.77;;
67979;SDS011;54760;47.490;19.030;2022-08-16T05:59:15;11.27;;;8.13;;
67979;SDS011;54760;47.490;19.030;2022-08-16T06:01:42;14.05;;;7.95;;
67979;SDS011;54760;47.490;19.030;2022-08-16T06:04:09;14.23;;;8.27;;
67979;SDS011;54760;47.490;19.030;2022-08-16T06:06:35;11.12;;;7.75;;
67979;SDS011;54760;47.490;19.030;2022-08-16T06:09:00;12.40;;;8.75;;
67979;SDS011;54760;47.490;19.030;2022-08-16T06:11:26;13.73;;;8.05;;
67979;SDS011;54760;47.490;19.030;2022-08-16T06:13:51;11.23;;;7.90;;
67979;SDS011;54760;47.490;19.030;2022-08-16T06:16:16;12.02;;;7.72;;
67979;SDS011;54760;47.490;19.030;2022-08-16T06:18:42;14.87;;;7.97;;
67979;SDS011;54760;47.490;19.030;2022-08-16T06:21:09;13.10;;;8.15;;
67979;SDS011;54760;47.490;19.030;2022-08-16T06:23:36;12.35;;;8.27;;
67979;SDS011;54760;47.490;19.030;2022-08-16T06:26:02;15.45;;;8.90;;
67979;SDS011;54760;47.490;19.030;2022-08-16T06:28:28;14.52;;;8.68;;
67979;SDS011;54760;47.490;19.030;2022-08-16T06:30:53;12.70;;;8.32;;
67979;SDS011;54760;47.490;19.030;2022-08-16T06:33:19;12.70;;;8.10;;
67979;SDS011;54760;47.490;19.030;2022-08-16T06:35:44;13.15;;;8.30;;
67979;SDS011;54760;47.490;19.030;2022-08-16T06:38:11;15.95;;;8.80;;
67979;SDS011;54760;47.490;19.030;2022-08-16T06:40:37;15.45;;;8.32;;
67979;SDS011;54760;47.490;19.030;2022-08-16T06:43:03;16.10;;;8.60;;
67979;SDS011;54760;47.490;19.030;2022-08-16T06:45:28;12.90;;;8.27;;
67979;SDS011;54760;47.490;19.030;2022-08-16T06:47:54;13.62;;;8.18;;
67979;SDS011;54760;47.490;19.030;2022-08-16T06:50:20;12.50;;;7.70;;
67979;SDS011;54760;47.490;19.030;2022-08-16T06:52:46;20.08;;;8.13;;
67979;SDS011;54760;47.490;19.030;2022-08-16T06:55:12;22.00;;;8.25;;
67979;SDS011;54760;47.490;19.030;2022-08-16T06:57:38;12.48;;;6.70;;
67979;SDS011;54760;47.490;19.030;2022-08-16T07:00:04;18.20;;;7.07;;
67979;SDS011;54760;47.490;19.030;2022-08-16T07:02:40;11.85;;;6.75;;
67979;SDS011;54760;47.490;19.030;2022-08-16T07:05:07;14.48;;;7.32;;
67979;SDS011;54760;47.490;19.030;2022-08-16T07:07:33;15.13;;;7.55;;
67979;SDS011;54760;47.490;19.030;2022-08-16T07:09:59;24.87;;;9.50;;
67979;SDS011;54760;47.490;19.030;2022-08-16T07:12:25;18.00;;;7.80;;
67979;SDS011;54760;47.490;19.030;2022-08-16T07:14:51;18.37;;;8.00;;
67979;SDS011;54760;47.490;19.030;2022-08-16T07:17:16;29.17;;;7.57;;
67979;SDS011;54760;47.490;19.030;2022-08-16T07:19:43;20.85;;;6.65;;
67979;SDS011;54760;47.490;19.030;2022-08-16T07:22:09;17.62;;;6.40;;
67979;SDS011;54760;47.490;19.030;2022-08-16T07:24:34;17.52;;;7.20;;
67979;SDS011;54760;47.490;19.030;2022-08-16T07:27:00;25.30;;;7.60;;
67979;SDS011;54760;47.490;19.030;2022-08-16T07:29:26;17.98;;;6.57;;
67979;SDS011;54760;47.490;19.030;2022-08-16T07:31:52;20.58;;;6.50;;
67979;SDS011;54760;47.490;19.030;2022-08-16T07:34:17;19.90;;;7.03;;
67979;SDS011;54760;47.490;19.030;2022-08-16T07:36:43;21.85;;;6.35;;
67979;SDS011;54760;47.490;19.030;2022-08-16T07:39:09;14.70;;;6.53;;
67979;SDS011;54760;47.490;19.030;2022-08-16T07:41:35;21.60;;;7.15;;
67979;SDS011;54760;47.490;19.030;2022-08-16T07:44:01;14.50;;;7.12;;
67979;SDS011;54760;47.490;19.030;2022-08-16T07:46:27;17.15;;;7.05;;
67979;SDS011;54760;47.490;19.030;2022-08-16T07:48:53;16.75;;;6.45;;
67979;SDS011;54760;47.490;19.030;2022-08-16T07:51:18;18.50;;;6.57;;
67979;SDS011;54760;47.490;19.030;2022-08-16T07:53:44;11.82;;;5.80;;
67979;SDS011;54760;47.490;19.030;2022-08-16T07:56:13;14.55;;;5.43;;
67979;SDS011;54760;47.490;19.030;2022-08-16T07:58:38;14.60;;;5.65;;
67979;SDS011;54760;47.490;19.030;2022-08-16T08:01:04;17.00;;;7.93;;
67979;SDS011;54760;47.490;19.030;2022-08-16T08:03:30;14.32;;;5.65;;
67979;SDS011;54760;47.490;19.030;2022-08-16T08:05:58;9.60;;;5.20;;
67979;SDS011;54760;47.490;19.030;2022-08-16T08:08:23;11.63;;;5.55;;
67979;SDS011;54760;47.490;19.030;2022-08-16T08:10:49;10.90;;;4.80;;
67979;SDS011;54760;47.490;19.030;2022-08-16T08:13:15;22.77;;;5.72;;
67979;SDS011;54760;47.490;19.030;2022-08-16T08:15:40;18.85;;;5.20;;
67979;SDS011;54760;47.490;19.030;2022-08-16T08:18:06;10.88;;;4.75;;
67979;SDS011;54760;47.490;19.030;2022-08-16T08:20:31;10.55;;;4.70;;
67979;SDS011;54760;47.490;19.030;2022-08-16T08:22:57;6.37;;;3.97;;
67979;SDS011;54760;47.490;19.030;2022-08-16T08:25:24;6.43;;;4.80;;
67979;SDS011;54760;47.490;19.030;2022-08-16T08:27:49;14.52;;;4.97;;
67979;SDS011;54760;47.490;19.030;2022-08-16T08:30:15;8.38;;;4.50;;
67979;SDS011;54760;47.490;19.030;2022-08-16T08:32:41;6.25;;;4.25;;
67979;SDS011;54760;47.490;19.030;2022-08-16T08:35:07;9.88;;;4.50;;
67979;SDS011;54760;47.490;19.030;2022-08-16T08:37:33;9.05;;;4.40;;
67979;SDS011;54760;47.490;19.030;2022-08-16T08:40:00;5.22;;;3.90;;
67979;SDS011;54760;47.490;19.030;2022-08-16T08:42:26;9.48;;;3.97;;
67979;SDS011;54760;47.490;19.030;2022-08-16T08:44:52;19.87;;;4.85;;
67979;SDS011;54760;47.490;19.030;2022-08-16T08:47:18;5.22;;;3.95;;
67979;SDS011;54760;47.490;19.030;2022-08-16T08:49:45;10.27;;;4.40;;
67979;SDS011;54760;47.490;19.030;2022-08-16T08:52:10;5.30;;;3.92;;
67979;SDS011;54760;47.490;19.030;2022-08-16T08:54:36;4.87;;;4.05;;
67979;SDS011;54760;47.490;19.030;2022-08-16T08:57:02;6.10;;;3.62;;
67979;SDS011;54760;47.490;19.030;2022-08-16T08:59:29;7.05;;;4.12;;
67979;SDS011;54760;47.490;19.030;2022-08-16T09:01:55;6.57;;;3.85;;
67979;SDS011;54760;47.490;19.030;2022-08-16T09:04:21;9.10;;;4.00;;
67979;SDS011;54760;47.490;19.030;2022-08-16T09:06:46;7.97;;;3.87;;
67979;SDS011;54760;47.490;19.030;2022-08-16T09:09:12;6.93;;;3.80;;
67979;SDS011;54760;47.490;19.030;2022-08-16T09:11:37;7.85;;;3.83;;
67979;SDS011;54760;47.490;19.030;2022-08-16T09:14:03;7.53;;;3.75;;
67979;SDS011;54760;47.490;19.030;2022-08-16T09:16:30;4.32;;;3.78;;
67979;SDS011;54760;47.490;19.030;2022-08-16T09:18:57;8.90;;;4.25;;
67979;SDS011;54760;47.490;19.030;2022-08-16T09:21:22;11.02;;;4.03;;
67979;SDS011;54760;47.490;19.030;2022-08-16T09:23:48;7.95;;;3.90;;
67979;SDS011;54760;47.490;19.030;2022-08-16T09:26:14;5.75;;;4.07;;
67979;SDS011;54760;47.490;19.030;2022-08-16T09:28:41;6.80;;;3.65;;
67979;SDS011;54760;47.490;19.030;2022-08-16T09:31:09;5.68;;;3.70;;
67979;SDS011;54760;47.490;19.030;2022-08-16T09:33:36;7.75;;;3.87;;
67979;SDS011;54760;47.490;19.030;2022-08-16T09:36:02;5.93;;;4.18;;
67979;SDS011;54760;47.490;19.030;2022-08-16T09:38:28;5.90;;;3.62;;
67979;SDS011;54760;47.490;19.030;2022-08-16T09:40:55;7.57;;;3.95;;
67979;SDS011;54760;47.490;19.030;2022-08-16T09:43:21;7.55;;;3.92;;
67979;SDS011;54760;47.490;19.030;2022-08-16T09:45:48;6.60;;;3.42;;
67979;SDS011;54760;47.490;19.030;2022-08-16T09:48:14;11.70;;;4.50;;
67979;SDS011;54760;47.490;19.030;2022-08-16T09:50:40;6.28;;;3.70;;
67979;SDS011;54760;47.490;19.030;2022-08-16T09:53:18;4.72;;;3.75;;
67979;SDS011;54760;47.490;19.030;2022-08-16T09:55:48;8.20;;;3.85;;
67979;SDS011;54760;47.490;19.030;2022-08-16T09:58:20;4.72;;;3.60;;
67979;SDS011;54760;47.490;19.030;2022-08-16T10:00:47;5.32;;;3.40;;
67979;SDS011;54760;47.490;19.030;2022-08-16T10:03:14;5.72;;;3.80;;
67979;SDS011;54760;47.490;19.030;2022-08-16T10:05:40;9.55;;;3.47;;
67979;SDS011;54760;47.490;19.030;2022-08-16T10:08:06;5.65;;;3.80;;
67979;SDS011;54760;47.490;19.030;2022-08-16T10:10:31;5.85;;;3.60;;
67979;SDS011;54760;47.490;19.030;2022-08-16T10:12:58;5.07;;;3.87;;
67979;SDS011;54760;47.490;19.030;2022-08-16T10:15:36;4.07;;;3.60;;
67979;SDS011;54760;47.490;19.030;2022-08-16T10:18:04;4.20;;;3.45;;
67979;SDS011;54760;47.490;19.030;2022-08-16T10:20:33;5.10;;;3.87;;
67979;SDS011;54760;47.490;19.030;2022-08-16T10:23:04;5.60;;;4.18;;
67979;SDS011;54760;47.490;19.030;2022-08-16T10:25:31;4.80;;;3.53;;
67979;SDS011;54760;47.490;19.030;2022-08-16T10:27:57;4.32;;;3.53;;
67979;SDS011;54760;47.490;19.030;2022-08-16T10:30:24;5.82;;;3.53;;
67979;SDS011;54760;47.490;19.030;2022-08-16T10:32:49;5.47;;;3.42;;
67979;SDS011;54760;47.490;19.030;2022-08-16T10:35:15;6.22;;;3.75;;
67979;SDS011;54760;47.490;19.030;2022-08-16T10:37:40;5.50;;;4.00;;
67979;SDS011;54760;47.490;19.030;2022-08-16T10:40:07;5.60;;;3.50;;
67979;SDS011;54760;47.490;19.030;2022-08-16T10:42:34;7.43;;;3.72;;
67979;SDS011;54760;47.490;19.030;2022-08-16T10:45:00;4.93;;;3.60;;
67979;SDS011;54760;47.490;19.030;2022-08-16T10:47:27;3.67;;;3.37;;
67979;SDS011;54760;47.490;19.030;2022-08-16T10:49:53;5.47;;;3.95;;
67979;SDS011;54760;47.490;19.030;2022-08-16T10:52:19;5.47;;;3.20;;
67979;SDS011;54760;47.490;19.030;2022-08-16T10:54:45;4.37;;;3.33;;
67979;SDS011;54760;47.490;19.030;2022-08-16T10:57:11;4.78;;;3.50;;
67979;SDS011;54760;47.490;19.030;2022-08-16T10:59:36;5.43;;;3.30;;
67979;SDS011;54760;47.490;19.030;2022-08-16T11:02:02;4.93;;;3.25;;
67979;SDS011;54760;47.490;19.030;2022-08-16T11:04:27;6.25;;;3.47;;
67979;SDS011;54760;47.490;19.030;2022-08-16T11:06:53;4.97;;;3.70;;
67979;SDS011;54760;47.490;19.030;2022-08-16T11:09:20;4.43;;;3.50;;
67979;SDS011;54760;47.490;19.030;2022-08-16T11:11:45;5.47;;;3.55;;
67979;SDS011;54760;47.490;19.030;2022-08-16T11:14:10;4.60;;;3.30;;
67979;SDS011;54760;47.490;19.030;2022-08-16T11:16:37;4.97;;;3.75;;
67979;SDS011;54760;47.490;19.030;2022-08-16T11:19:02;6.30;;;3.80;;
67979;SDS011;54760;47.490;19.030;2022-08-16T11:21:30;6.30;;;3.97;;
67979;SDS011;54760;47.490;19.030;2022-08-16T11:23:56;5.72;;;3.40;;
67979;SDS011;54760;47.490;19.030;2022-08-16T11:26:22;5.00;;;3.58;;
67979;SDS011;54760;47.490;19.030;2022-08-16T11:28:47;4.75;;;3.95;;
67979;SDS011;54760;47.490;19.030;2022-08-16T11:31:15;5.28;;;3.60;;
67979;SDS011;54760;47.490;19.030;2022-08-16T11:33:41;9.90;;;4.10;;
67979;SDS011;54760;47.490;19.030;2022-08-16T11:36:07;9.73;;;3.83;;
67979;SDS011;54760;47.490;19.030;2022-08-16T11:38:32;9.30;;;3.60;;
67979;SDS011;54760;47.490;19.030;2022-08-16T11:40:59;5.97;;;3.35;;
67979;SDS011;54760;47.490;19.030;2022-08-16T11:43:30;4.60;;;3.30;;
67979;SDS011;54760;47.490;19.030;2022-08-16T11:45:58;4.90;;;3.10;;
67979;SDS011;54760;47.490;19.030;2022-08-16T11:48:27;3.17;;;2.87;;
67979;SDS011;54760;47.490;19.030;2022-08-16T11:50:54;6.95;;;3.00;;
67979;SDS011;54760;47.490;19.030;2022-08-16T11:53:21;6.45;;;2.80;;
67979;SDS011;54760;47.490;19.030;2022-08-16T11:55:47;2.53;;;2.17;;
67979;SDS011;54760;47.490;19.030;2022-08-16T11:58:13;2.65;;;2.00;;
67979;SDS011;54760;47.490;19.030;2022-08-16T12:00:39;4.82;;;2.42;;
67979;SDS011;54760;47.490;19.030;2022-08-16T12:03:07;3.53;;;2.67;;
67979;SDS011;54760;47.490;19.030;2022-08-16T12:05:32;5.35;;;2.45;;
67979;SDS011;54760;47.490;19.030;2022-08-16T12:07:59;3.05;;;2.47;;
67979;SDS011;54760;47.490;19.030;2022-08-16T12:10:25;4.22;;;2.62;;
67979;SDS011;54760;47.490;19.030;2022-08-16T12:12:51;3.87;;;2.70;;
67979;SDS011;54760;47.490;19.030;2022-08-16T12:15:17;4.50;;;2.72;;
67979;SDS011;54760;47.490;19.030;2022-08-16T12:17:43;5.22;;;2.60;;
67979;SDS011;54760;47.490;19.030;2022-08-16T12:20:11;5.28;;;3.03;;
67979;SDS011;54760;47.490;19.030;2022-08-16T12:22:40;2.67;;;2.45;;
67979;SDS011;54760;47.490;19.030;2022-08-16T12:25:07;5.00;;;3.20;;
67979;SDS011;54760;47.490;19.030;2022-08-16T12:27:35;4.03;;;2.92;;
67979;SDS011;54760;47.490;19.030;2022-08-16T12:30:01;4.95;;;3.25;;
67979;SDS011;54760;47.490;19.030;2022-08-16T12:32:28;4.05;;;2.80;;
67979;SDS011;54760;47.490;19.030;2022-08-16T12:34:54;4.05;;;2.90;;
67979;SDS011;54760;47.490;19.030;2022-08-16T12:37:19;3.22;;;2.83;;
67979;SDS011;54760;47.490;19.030;2022-08-16T12:39:45;3.40;;;2.90;;
67979;SDS011;54760;47.490;19.030;2022-08-16T12:42:11;3.37;;;2.90;;
67979;SDS011;54760;47.490;19.030;2022-08-16T12:44:36;5.87;;;3.03;;
67979;SDS011;54760;47.490;19.030;2022-08-16T12:47:06;3.17;;;2.70;;
67979;SDS011;54760;47.490;19.030;2022-08-16T12:49:51;5.60;;;3.20;;
67979;SDS011;54760;47.490;19.030;2022-08-16T12:52:17;6.87;;;3.37;;
67979;SDS011;54760;47.490;19.030;2022-08-16T12:54:42;3.35;;;3.05;;
67979;SDS011;54760;47.490;19.030;2022-08-16T12:57:08;6.28;;;3.90;;
67979;SDS011;54760;47.490;19.030;2022-08-16T12:59:34;4.70;;;3.50;;
67979;SDS011;54760;47.490;19.030;2022-08-16T13:02:01;4.03;;;3.45;;
67979;SDS011;54760;47.490;19.030;2022-08-16T13:04:28;4.65;;;3.90;;
67979;SDS011;54760;47.490;19.030;2022-08-16T13:06:57;5.75;;;3.87;;
67979;SDS011;54760;47.490;19.030;2022-08-16T13:09:23;6.82;;;4.40;;
67979;SDS011;54760;47.490;19.030;2022-08-16T13:11:55;5.32;;;3.90;;
67979;SDS011;54760;47.490;19.030;2022-08-16T13:14:28;5.80;;;3.75;;
67979;SDS011;54760;47.490;19.030;2022-08-16T13:16:57;6.35;;;4.07;;
67979;SDS011;54760;47.490;19.030;2022-08-16T13:19:24;5.82;;;3.90;;
67979;SDS011;54760;47.490;19.030;2022-08-16T13:21:49;4.85;;;3.90;;
67979;SDS011;54760;47.490;19.030;2022-08-16T13:24:15;4.87;;;3.85;;
67979;SDS011;54760;47.490;19.030;2022-08-16T13:26:40;5.97;;;3.80;;
67979;SDS011;54760;47.490;19.030;2022-08-16T13:29:06;5.15;;;3.87;;
67979;SDS011;54760;47.490;19.030;2022-08-16T13:31:31;6.60;;;3.80;;
67979;SDS011;54760;47.490;19.030;2022-08-16T13:33:57;5.07;;;4.00;;
67979;SDS011;54760;47.490;19.030;2022-08-16T13:36:22;6.57;;;4.18;;
67979;SDS011;54760;47.490;19.030;2022-08-16T13:38:48;4.45;;;3.92;;
67979;SDS011;54760;47.490;19.030;2022-08-16T13:41:13;7.12;;;3.90;;
67979;SDS011;54760;47.490;19.030;2022-08-16T13:43:39;4.18;;;3.78;;
67979;SDS011;54760;47.490;19.030;2022-08-16T13:46:05;4.00;;;3.60;;
67979;SDS011;54760;47.490;19.030;2022-08-16T13:48:32;4.72;;;3.90;;
67979;SDS011;54760;47.490;19.030;2022-08-16T13:50:59;9.55;;;4.03;;
67979;SDS011;54760;47.490;19.030;2022-08-16T13:53:25;6.30;;;3.80;;
67979;SDS011;54760;47.490;19.030;2022-08-16T13:55:53;5.82;;;4.15;;
67979;SDS011;54760;47.490;19.030;2022-08-16T13:58:19;7.30;;;3.97;;
67979;SDS011;54760;47.490;19.030;2022-08-16T14:00:44;7.00;;;3.87;;
67979;SDS011;54760;47.490;19.030;2022-08-16T14:03:09;5.20;;;3.60;;
67979;SDS011;54760;47.490;19.030;2022-08-16T14:05:35;3.83;;;3.40;;
67979;SDS011;54760;47.490;19.030;2022-08-16T14:08:00;4.37;;;3.30;;
67979;SDS011;54760;47.490;19.030;2022-08-16T14:10:26;4.12;;;3.45;;
67979;SDS011;54760;47.490;19.030;2022-08-16T14:12:51;5.15;;;3.70;;
67979;SDS011;54760;47.490;19.030;2022-08-16T14:15:17;4.57;;;3.45;;
67979;SDS011;54760;47.490;19.030;2022-08-16T14:17:44;4.10;;;3.70;;
67979;SDS011;54760;47.490;19.030;2022-08-16T14:20:09;5.15;;;3.67;;
67979;SDS011;54760;47.490;19.030;2022-08-16T14:22:36;5.20;;;3.60;;
67979;SDS011;54760;47.490;19.030;2022-08-16T14:25:04;5.18;;;3.55;;
67979;SDS011;54760;47.490;19.030;2022-08-16T14:27:34;6.12;;;3.60;;
67979;SDS011;54760;47.490;19.030;2022-08-16T14:30:00;3.78;;;3.45;;
67979;SDS011;54760;47.490;19.030;2022-08-16T14:32:27;5.28;;;3.78;;